createdAt,value
2018-03-28T00:00:29.808Z,57.69
2018-03-28T00:01:01.439Z,57.61
2018-03-28T00:01:33.067Z,57.74
2018-03-28T00:02:04.702Z,57.35
2018-03-28T00:02:36.329Z,57.28
2018-03-28T00:03:07.953Z,57.38
2018-03-28T00:03:39.582Z,57.23
2018-03-28T00:04:11.207Z,57.28
2018-03-28T00:04:42.835Z,57.10
2018-03-28T00:05:14.462Z,57.29
2018-03-28T00:05:46.129Z,57.14
2018-03-28T00:06:17.754Z,57.17
2018-03-28T00:06:49.378Z,57.26
2018-03-28T00:07:21.005Z,57.14
2018-03-28T00:07:52.634Z,57.18
2018-03-28T00:08:24.258Z,57.19
2018-03-28T00:08:55.886Z,56.98
2018-03-28T00:09:27.510Z,57.17
2018-03-28T00:09:59.133Z,56.98
2018-03-28T00:10:30.806Z,57.08
2018-03-28T00:11:02.466Z,57.00
2018-03-28T00:11:34.111Z,57.04
2018-03-28T00:12:05.740Z,56.98
2018-03-28T00:12:37.362Z,57.03
2018-03-28T00:13:08.990Z,57.14
2018-03-28T00:13:40.618Z,57.02
2018-03-28T00:14:12.245Z,56.83
2018-03-28T00:14:43.870Z,56.88
2018-03-28T00:15:15.489Z,56.87
2018-03-28T00:15:47.120Z,56.98
2018-03-28T00:16:18.755Z,56.92
2018-03-28T00:16:50.389Z,56.94
2018-03-28T00:17:22.009Z,56.96
2018-03-28T00:17:53.634Z,56.91
2018-03-28T00:18:25.262Z,56.90
2018-03-28T00:18:56.887Z,56.88
2018-03-28T00:19:28.510Z,56.88
2018-03-28T00:20:00.134Z,56.85
2018-03-28T00:20:31.766Z,57.03
2018-03-28T00:21:03.442Z,56.99
2018-03-28T00:21:35.066Z,56.90
2018-03-28T00:22:06.685Z,57.01
2018-03-28T00:22:38.309Z,57.10
2018-03-28T00:23:09.967Z,57.11
2018-03-28T00:23:41.604Z,57.12
2018-03-28T00:24:13.238Z,57.04
2018-03-28T00:24:44.862Z,57.09
2018-03-28T00:25:16.526Z,57.23
2018-03-28T00:25:48.158Z,57.06
2018-03-28T00:26:19.786Z,57.08
2018-03-28T00:26:51.444Z,57.14
2018-03-28T00:27:23.070Z,57.22
2018-03-28T00:27:54.694Z,57.18
2018-03-28T00:28:26.326Z,57.19
2018-03-28T00:28:57.954Z,57.23
2018-03-28T00:29:29.577Z,57.27
2018-03-28T00:30:01.206Z,57.30
2018-03-28T00:30:32.838Z,57.47
2018-03-28T00:31:04.466Z,57.39
2018-03-28T00:31:36.094Z,57.55
2018-03-28T00:32:07.726Z,57.50
2018-03-28T00:32:39.350Z,57.48
2018-03-28T00:33:10.979Z,57.68
2018-03-28T00:33:42.602Z,57.47
2018-03-28T00:34:14.238Z,57.60
2018-03-28T00:34:45.916Z,57.78
2018-03-28T00:35:17.587Z,57.52
2018-03-28T00:35:49.218Z,57.53
2018-03-28T00:36:20.842Z,57.46
2018-03-28T00:36:52.465Z,57.59
2018-03-28T00:37:24.095Z,57.78
2018-03-28T00:37:55.727Z,57.91
2018-03-28T00:38:27.398Z,58.03
2018-03-28T00:38:59.023Z,57.93
2018-03-28T00:39:30.655Z,58.03
2018-03-28T00:40:02.326Z,58.28
2018-03-28T00:40:33.949Z,58.30
2018-03-28T00:41:05.618Z,58.13
2018-03-28T00:41:37.241Z,58.27
2018-03-28T00:42:08.862Z,58.19
2018-03-28T00:42:40.490Z,58.08
2018-03-28T00:43:12.120Z,58.11
2018-03-28T00:43:43.779Z,58.23
2018-03-28T00:44:15.412Z,58.19
2018-03-28T00:44:47.038Z,58.18
2018-03-28T00:45:18.722Z,58.27
2018-03-28T00:45:50.346Z,58.06
2018-03-28T00:46:21.982Z,58.25
2018-03-28T00:46:53.610Z,58.11
2018-03-28T00:47:25.234Z,58.26
2018-03-28T00:47:56.862Z,58.10
2018-03-28T00:48:28.486Z,58.33
2018-03-28T00:49:00.111Z,58.37
2018-03-28T00:49:31.742Z,58.25
2018-03-28T00:50:03.372Z,58.43
2018-03-28T00:50:35.051Z,58.43
2018-03-28T00:51:06.678Z,58.42
2018-03-28T00:51:38.301Z,58.38
2018-03-28T00:52:09.933Z,58.41
2018-03-28T00:52:41.563Z,58.46
2018-03-28T00:53:13.190Z,58.57
2018-03-28T00:53:44.813Z,58.54
2018-03-28T00:54:16.442Z,58.37
2018-03-28T00:54:48.073Z,58.37
2018-03-28T00:55:19.703Z,58.51
2018-03-28T00:55:51.374Z,58.50
2018-03-28T00:56:23.002Z,58.54
2018-03-28T00:56:54.639Z,58.56
2018-03-28T00:57:26.266Z,58.66
2018-03-28T00:57:57.899Z,58.50
2018-03-28T00:58:29.522Z,58.59
2018-03-28T00:59:01.150Z,58.82
2018-03-28T00:59:32.830Z,58.99
2018-03-28T01:00:04.454Z,59.15
2018-03-28T01:00:36.078Z,59.20
2018-03-28T01:01:07.711Z,59.01
2018-03-28T01:01:39.342Z,59.06
2018-03-28T01:02:10.977Z,58.96
2018-03-28T01:02:42.606Z,59.03
2018-03-28T01:03:14.225Z,58.92
2018-03-28T01:03:45.856Z,58.91
2018-03-28T01:04:17.485Z,58.81
2018-03-28T01:04:49.166Z,58.92
2018-03-28T01:05:20.790Z,58.87
2018-03-28T01:05:52.414Z,58.79
2018-03-28T01:06:24.047Z,58.76
2018-03-28T01:06:55.670Z,58.74
2018-03-28T01:07:27.299Z,58.90
2018-03-28T01:07:58.921Z,58.69
2018-03-28T01:08:30.543Z,58.71
2018-03-28T01:09:02.166Z,58.85
2018-03-28T01:09:33.790Z,59.00
2018-03-28T01:10:05.420Z,58.78
2018-03-28T01:10:37.076Z,58.64
2018-03-28T01:11:08.694Z,58.69
2018-03-28T01:11:40.318Z,58.67
2018-03-28T01:12:11.946Z,58.62
2018-03-28T01:12:43.614Z,58.58
2018-03-28T01:13:15.242Z,58.83
2018-03-28T01:13:46.865Z,58.60
2018-03-28T01:14:18.494Z,58.68
2018-03-28T01:14:50.121Z,58.81
2018-03-28T01:15:21.750Z,58.56
2018-03-28T01:15:53.373Z,58.61
2018-03-28T01:16:25.002Z,58.53
2018-03-28T01:16:56.626Z,58.60
2018-03-28T01:17:28.276Z,58.59
2018-03-28T01:17:59.907Z,58.55
2018-03-28T01:18:31.603Z,58.71
2018-03-28T01:19:03.238Z,58.60
2018-03-28T01:19:34.921Z,58.54
2018-03-28T01:20:06.553Z,58.64
2018-03-28T01:20:38.173Z,58.57
2018-03-28T01:21:09.793Z,58.58
2018-03-28T01:21:41.423Z,58.58
2018-03-28T01:22:13.046Z,58.42
2018-03-28T01:22:44.674Z,58.42
2018-03-28T01:23:16.298Z,58.50
2018-03-28T01:23:47.926Z,58.54
2018-03-28T01:24:19.550Z,58.49
2018-03-28T01:24:51.184Z,58.35
2018-03-28T01:25:22.814Z,58.43
2018-03-28T01:25:54.450Z,58.49
2018-03-28T01:26:26.074Z,58.36
2018-03-28T01:26:57.702Z,58.32
2018-03-28T01:27:29.327Z,58.39
2018-03-28T01:28:00.989Z,58.25
2018-03-28T01:28:32.630Z,58.30
2018-03-28T01:29:04.261Z,58.24
2018-03-28T01:29:35.883Z,58.23
2018-03-28T01:30:07.511Z,58.29
2018-03-28T01:30:39.138Z,58.31
2018-03-28T01:31:10.763Z,58.36
2018-03-28T01:31:42.394Z,58.28
2018-03-28T01:32:14.066Z,58.20
2018-03-28T01:32:45.697Z,58.28
2018-03-28T01:33:17.326Z,58.35
2018-03-28T01:33:48.999Z,58.29
2018-03-28T01:34:20.621Z,58.33
2018-03-28T01:34:52.251Z,58.32
2018-03-28T01:35:23.874Z,58.17
2018-03-28T01:35:55.499Z,58.13
2018-03-28T01:36:27.123Z,58.02
2018-03-28T01:36:58.763Z,58.02
2018-03-28T01:37:30.395Z,58.03
2018-03-28T01:38:02.029Z,58.13
2018-03-28T01:38:33.694Z,58.22
2018-03-28T01:39:05.317Z,58.16
2018-03-28T01:39:36.942Z,58.38
2018-03-28T01:40:08.570Z,58.38
2018-03-28T01:40:40.194Z,58.31
2018-03-28T01:41:11.818Z,58.28
2018-03-28T01:41:43.450Z,58.34
2018-03-28T01:42:15.075Z,58.34
2018-03-28T01:42:46.698Z,58.30
2018-03-28T01:43:18.322Z,58.31
2018-03-28T01:43:49.946Z,58.40
2018-03-28T01:44:21.572Z,58.55
2018-03-28T01:44:53.205Z,58.66
2018-03-28T01:45:24.830Z,58.46
2018-03-28T01:45:56.453Z,58.58
2018-03-28T01:46:28.134Z,58.84
2018-03-28T01:46:59.801Z,58.62
2018-03-28T01:47:31.430Z,58.59
2018-03-28T01:48:03.054Z,58.69
2018-03-28T01:48:34.677Z,58.76
2018-03-28T01:49:06.377Z,58.85
2018-03-28T01:49:38.049Z,58.80
2018-03-28T01:50:09.675Z,58.70
2018-03-28T01:50:41.301Z,58.69
2018-03-28T01:51:12.930Z,58.61
2018-03-28T01:51:44.570Z,59.07
2018-03-28T01:52:16.210Z,59.29
2018-03-28T01:52:47.842Z,59.12
2018-03-28T01:53:19.470Z,59.06
2018-03-28T01:53:51.101Z,59.17
2018-03-28T01:54:22.755Z,58.87
2018-03-28T01:54:54.422Z,59.08
2018-03-28T01:55:26.046Z,59.22
2018-03-28T01:55:57.670Z,58.98
2018-03-28T01:56:29.294Z,59.33
2018-03-28T01:57:00.918Z,59.03
2018-03-28T01:57:32.582Z,59.62
2018-03-28T01:58:04.210Z,59.85
2018-03-28T01:58:35.833Z,59.58
2018-03-28T01:59:07.458Z,59.27
2018-03-28T01:59:39.081Z,59.56
2018-03-28T02:00:10.710Z,59.46
2018-03-28T02:00:42.337Z,60.06
2018-03-28T02:01:14.007Z,59.99
2018-03-28T02:01:45.636Z,59.93
2018-03-28T02:02:17.266Z,60.43
2018-03-28T02:02:48.894Z,60.01
2018-03-28T02:03:20.518Z,60.25
2018-03-28T02:03:52.199Z,60.27
2018-03-28T02:04:23.826Z,60.23
2018-03-28T02:04:55.449Z,60.73
2018-03-28T02:05:27.078Z,60.71
2018-03-28T02:05:58.706Z,60.82
2018-03-28T02:06:30.342Z,60.32
2018-03-28T02:07:01.971Z,60.55
2018-03-28T02:07:33.606Z,60.73
2018-03-28T02:08:05.230Z,60.91
2018-03-28T02:08:36.854Z,60.98
2018-03-28T02:09:08.478Z,60.94
2018-03-28T02:09:40.103Z,60.97
2018-03-28T02:10:11.794Z,61.01
2018-03-28T02:10:43.389Z,61.07
2018-03-28T02:11:15.010Z,60.97
2018-03-28T02:11:46.638Z,61.05
2018-03-28T02:12:18.310Z,60.94
2018-03-28T02:12:49.938Z,61.25
2018-03-28T02:13:21.570Z,61.19
2018-03-28T02:13:53.194Z,61.25
2018-03-28T02:14:24.826Z,61.16
2018-03-28T02:14:56.502Z,61.19
2018-03-28T02:15:28.126Z,61.77
2018-03-28T02:15:59.751Z,61.55
2018-03-28T02:16:31.379Z,61.41
2018-03-28T02:17:03.002Z,61.56
2018-03-28T02:17:34.633Z,61.59
2018-03-28T02:18:06.262Z,61.73
2018-03-28T02:18:37.887Z,61.65
2018-03-28T02:19:09.514Z,61.75
2018-03-28T02:19:41.183Z,61.78
2018-03-28T02:20:12.838Z,61.95
2018-03-28T02:20:44.478Z,61.86
2018-03-28T02:21:16.109Z,61.87
2018-03-28T02:21:47.742Z,61.92
2018-03-28T02:22:19.366Z,61.97
2018-03-28T02:22:51.003Z,61.96
2018-03-28T02:23:22.635Z,61.90
2018-03-28T02:23:54.262Z,61.97
2018-03-28T02:24:25.890Z,61.85
2018-03-28T02:24:57.570Z,61.85
2018-03-28T02:25:29.194Z,61.82
2018-03-28T02:26:00.821Z,62.03
2018-03-28T02:26:32.450Z,61.80
2018-03-28T02:27:04.073Z,61.85
2018-03-28T02:27:35.702Z,61.78
2018-03-28T02:28:07.338Z,61.71
2018-03-28T02:28:38.966Z,61.75
2018-03-28T02:29:10.598Z,61.78
2018-03-28T02:29:42.231Z,61.82
2018-03-28T02:30:13.898Z,61.78
2018-03-28T02:30:45.531Z,62.08
2018-03-28T02:31:17.162Z,61.91
2018-03-28T02:31:48.830Z,61.82
2018-03-28T02:32:20.456Z,61.85
2018-03-28T02:32:52.086Z,61.82
2018-03-28T02:33:23.714Z,61.72
2018-03-28T02:33:55.346Z,61.73
2018-03-28T02:34:26.979Z,61.67
2018-03-28T02:34:58.604Z,61.58
2018-03-28T02:35:30.226Z,61.44
2018-03-28T02:36:01.928Z,61.12
2018-03-28T02:36:33.610Z,61.08
2018-03-28T02:37:05.243Z,61.10
2018-03-28T02:37:36.873Z,61.06
2018-03-28T02:38:08.498Z,60.88
2018-03-28T02:38:40.123Z,60.78
2018-03-28T02:39:11.751Z,60.79
2018-03-28T02:39:43.395Z,60.71
2018-03-28T02:40:15.050Z,60.70
2018-03-28T02:40:46.679Z,60.58
2018-03-28T02:41:18.358Z,60.83
2018-03-28T02:41:49.982Z,62.09
2018-03-28T02:42:21.610Z,61.12
2018-03-28T02:42:53.250Z,60.60
2018-03-28T02:43:24.880Z,60.19
2018-03-28T02:43:56.502Z,60.09
2018-03-28T02:44:28.131Z,60.11
2018-03-28T02:44:59.759Z,60.11
2018-03-28T02:45:31.387Z,59.89
2018-03-28T02:46:03.015Z,60.09
2018-03-28T02:46:34.682Z,60.03
2018-03-28T02:47:06.355Z,60.00
2018-03-28T02:47:37.982Z,59.70
2018-03-28T02:48:09.615Z,59.35
2018-03-28T02:48:41.267Z,59.33
2018-03-28T02:49:12.891Z,59.31
2018-03-28T02:49:44.515Z,59.23
2018-03-28T02:50:16.139Z,59.21
2018-03-28T02:50:47.766Z,59.09
2018-03-28T02:51:19.395Z,58.94
2018-03-28T02:51:51.070Z,58.86
2018-03-28T02:52:22.703Z,58.75
2018-03-28T02:52:54.362Z,58.77
2018-03-28T02:53:25.989Z,58.75
2018-03-28T02:53:57.619Z,58.83
2018-03-28T02:54:29.258Z,58.78
2018-03-28T02:55:00.883Z,58.40
2018-03-28T02:55:32.506Z,58.43
2018-03-28T02:56:04.143Z,58.37
2018-03-28T02:56:35.778Z,58.27
2018-03-28T02:57:07.450Z,58.21
2018-03-28T02:57:39.074Z,58.68
2018-03-28T02:58:10.751Z,58.26
2018-03-28T02:58:42.374Z,58.05
2018-03-28T02:59:14.003Z,57.51
2018-03-28T02:59:45.631Z,57.12
2018-03-28T03:00:17.348Z,56.91
2018-03-28T03:00:48.983Z,57.49
2018-03-28T03:01:20.614Z,57.53
2018-03-28T03:01:52.286Z,57.56
2018-03-28T03:02:23.922Z,57.66
2018-03-28T03:02:55.551Z,57.69
2018-03-28T03:03:27.223Z,57.79
2018-03-28T03:03:58.855Z,57.83
2018-03-28T03:04:30.486Z,57.79
2018-03-28T03:05:02.114Z,57.73
2018-03-28T03:05:33.744Z,57.66
2018-03-28T03:06:05.373Z,57.61
2018-03-28T03:06:37.002Z,57.58
2018-03-28T03:07:08.630Z,57.55
2018-03-28T03:07:40.298Z,57.56
2018-03-28T03:08:11.926Z,57.55
2018-03-28T03:08:43.550Z,57.58
2018-03-28T03:09:15.198Z,57.48
2018-03-28T03:09:46.822Z,57.42
2018-03-28T03:10:18.489Z,57.41
2018-03-28T03:10:50.118Z,57.34
2018-03-28T03:11:21.741Z,57.22
2018-03-28T03:11:53.374Z,57.26
2018-03-28T03:12:25.007Z,57.25
2018-03-28T03:12:56.630Z,57.21
2018-03-28T03:13:28.254Z,57.14
2018-03-28T03:13:59.883Z,57.13
2018-03-28T03:14:31.546Z,57.17
2018-03-28T03:15:03.174Z,57.09
2018-03-28T03:15:34.806Z,57.14
2018-03-28T03:16:06.430Z,57.09
2018-03-28T03:16:38.055Z,57.14
2018-03-28T03:17:09.686Z,57.03
2018-03-28T03:17:41.310Z,57.07
2018-03-28T03:18:12.946Z,57.07
2018-03-28T03:18:44.582Z,57.04
2018-03-28T03:19:16.211Z,57.03
2018-03-28T03:19:47.843Z,57.02
2018-03-28T03:20:19.470Z,56.99
2018-03-28T03:20:51.139Z,56.93
2018-03-28T03:21:22.766Z,57.01
2018-03-28T03:21:54.390Z,57.06
2018-03-28T03:22:26.018Z,57.08
2018-03-28T03:22:57.650Z,57.04
2018-03-28T03:23:29.276Z,57.04
2018-03-28T03:24:00.906Z,57.05
2018-03-28T03:24:32.530Z,57.04
2018-03-28T03:25:04.149Z,57.02
2018-03-28T03:25:35.826Z,57.02
2018-03-28T03:26:07.449Z,57.03
2018-03-28T03:26:39.078Z,56.98
2018-03-28T03:27:10.707Z,57.04
2018-03-28T03:27:42.330Z,57.03
2018-03-28T03:28:13.963Z,57.05
2018-03-28T03:28:45.590Z,57.03
2018-03-28T03:29:17.218Z,56.98
2018-03-28T03:29:48.838Z,57.04
2018-03-28T03:30:20.475Z,57.02
2018-03-28T03:30:52.143Z,57.11
2018-03-28T03:31:23.779Z,57.12
2018-03-28T03:31:55.406Z,57.05
2018-03-28T03:32:27.030Z,57.03
2018-03-28T03:32:58.654Z,57.05
2018-03-28T03:33:30.278Z,57.08
2018-03-28T03:34:01.951Z,57.03
2018-03-28T03:34:33.573Z,57.04
2018-03-28T03:35:05.198Z,57.07
2018-03-28T03:35:36.825Z,57.04
2018-03-28T03:36:08.496Z,57.01
2018-03-28T03:36:40.130Z,56.96
2018-03-28T03:37:11.755Z,56.99
2018-03-28T03:37:43.382Z,56.97
2018-03-28T03:38:15.011Z,56.98
2018-03-28T03:38:46.638Z,57.02
2018-03-28T03:39:18.306Z,57.01
2018-03-28T03:39:49.930Z,57.06
2018-03-28T03:40:21.562Z,57.09
2018-03-28T03:40:53.190Z,57.10
2018-03-28T03:41:24.862Z,57.12
2018-03-28T03:41:56.486Z,57.05
2018-03-28T03:42:28.110Z,57.12
2018-03-28T03:42:59.744Z,57.12
2018-03-28T03:43:31.370Z,57.06
2018-03-28T03:44:02.998Z,57.07
2018-03-28T03:44:34.622Z,57.10
2018-03-28T03:45:06.247Z,57.15
2018-03-28T03:45:37.871Z,57.20
2018-03-28T03:46:09.496Z,57.11
2018-03-28T03:46:41.166Z,57.11
2018-03-28T03:47:12.796Z,57.11
2018-03-28T03:47:44.419Z,57.07
2018-03-28T03:48:16.049Z,57.08
2018-03-28T03:48:47.674Z,57.08
2018-03-28T03:49:19.306Z,57.04
2018-03-28T03:49:50.932Z,57.07
2018-03-28T03:50:22.558Z,57.13
2018-03-28T03:50:54.185Z,57.06
2018-03-28T03:51:25.810Z,57.09
2018-03-28T03:51:57.486Z,57.09
2018-03-28T03:52:29.110Z,57.12
2018-03-28T03:53:00.742Z,57.19
2018-03-28T03:53:32.370Z,57.21
2018-03-28T03:54:03.998Z,57.21
2018-03-28T03:54:35.624Z,57.21
2018-03-28T03:55:07.254Z,57.22
2018-03-28T03:55:38.883Z,57.17
2018-03-28T03:56:10.511Z,57.14
2018-03-28T03:56:42.134Z,57.13
2018-03-28T03:57:13.806Z,57.11
2018-03-28T03:57:45.430Z,57.16
2018-03-28T03:58:17.098Z,57.12
2018-03-28T03:58:48.755Z,57.11
2018-03-28T03:59:20.387Z,57.05
2018-03-28T03:59:52.018Z,57.03
2018-03-28T04:00:23.642Z,57.00
2018-03-28T04:00:55.274Z,57.05
2018-03-28T04:01:26.898Z,57.01
2018-03-28T04:01:58.527Z,56.99
2018-03-28T04:02:30.154Z,56.93
2018-03-28T04:03:01.778Z,56.89
2018-03-28T04:03:33.402Z,56.92
2018-03-28T04:04:05.026Z,56.90
2018-03-28T04:04:36.650Z,56.85
2018-03-28T04:05:08.278Z,56.79
2018-03-28T04:05:39.908Z,56.83
2018-03-28T04:06:11.538Z,56.80
2018-03-28T04:06:43.162Z,56.81
2018-03-28T04:07:14.786Z,56.80
2018-03-28T04:07:46.446Z,56.74
2018-03-28T04:08:18.078Z,56.78
2018-03-28T04:08:49.710Z,56.74
2018-03-28T04:09:21.338Z,56.73
2018-03-28T04:09:52.970Z,56.71
2018-03-28T04:10:24.594Z,56.70
2018-03-28T04:10:56.226Z,56.71
2018-03-28T04:11:27.854Z,56.73
2018-03-28T04:11:59.482Z,56.74
2018-03-28T04:12:31.102Z,56.78
2018-03-28T04:13:02.762Z,56.86
2018-03-28T04:13:34.425Z,56.86
2018-03-28T04:14:06.054Z,56.82
2018-03-28T04:14:37.679Z,56.85
2018-03-28T04:15:09.346Z,56.81
2018-03-28T04:15:40.975Z,56.83
2018-03-28T04:16:12.602Z,56.79
2018-03-28T04:16:44.222Z,56.76
2018-03-28T04:17:15.850Z,56.79
2018-03-28T04:17:47.474Z,56.82
2018-03-28T04:18:19.103Z,56.84
2018-03-28T04:18:50.727Z,56.89
2018-03-28T04:19:22.359Z,56.78
2018-03-28T04:19:54.026Z,56.71
2018-03-28T04:20:25.646Z,56.72
2018-03-28T04:20:57.270Z,56.75
2018-03-28T04:21:28.898Z,56.76
2018-03-28T04:22:00.526Z,56.74
2018-03-28T04:22:32.159Z,56.72
2018-03-28T04:23:03.787Z,56.64
2018-03-28T04:23:35.415Z,56.58
2018-03-28T04:24:07.042Z,56.53
2018-03-28T04:24:38.666Z,56.50
2018-03-28T04:25:10.289Z,56.50
2018-03-28T04:25:41.922Z,56.48
2018-03-28T04:26:13.542Z,56.36
2018-03-28T04:26:45.166Z,56.29
2018-03-28T04:27:16.790Z,56.21
2018-03-28T04:27:48.415Z,56.10
2018-03-28T04:28:20.040Z,55.98
2018-03-28T04:28:51.666Z,55.89
2018-03-28T04:29:23.294Z,55.81
2018-03-28T04:29:54.969Z,55.65
2018-03-28T04:30:26.658Z,55.51
2018-03-28T04:30:58.287Z,55.32
2018-03-28T04:31:29.912Z,55.27
2018-03-28T04:32:01.538Z,55.13
2018-03-28T04:32:33.214Z,54.98
2018-03-28T04:33:04.817Z,54.86
2018-03-28T04:33:36.446Z,54.73
2018-03-28T04:34:08.084Z,54.58
2018-03-28T04:34:39.710Z,54.42
2018-03-28T04:35:11.338Z,54.25
2018-03-28T04:35:43.021Z,54.11
2018-03-28T04:36:14.650Z,54.16
2018-03-28T04:36:46.275Z,54.01
2018-03-28T04:37:17.906Z,53.94
2018-03-28T04:37:49.534Z,53.91
2018-03-28T04:38:21.157Z,53.88
2018-03-28T04:38:52.787Z,53.85
2018-03-28T04:39:24.418Z,53.81
2018-03-28T04:39:56.046Z,53.68
2018-03-28T04:40:27.709Z,53.78
2018-03-28T04:40:59.333Z,53.77
2018-03-28T04:41:30.962Z,53.68
2018-03-28T04:42:02.598Z,53.71
2018-03-28T04:42:34.228Z,53.64
2018-03-28T04:43:05.858Z,53.62
2018-03-28T04:43:37.478Z,53.66
2018-03-28T04:44:09.101Z,53.65
2018-03-28T04:44:40.730Z,53.62
2018-03-28T04:45:12.394Z,53.73
2018-03-28T04:45:44.018Z,53.74
2018-03-28T04:46:15.646Z,53.65
2018-03-28T04:46:47.271Z,53.62
2018-03-28T04:47:18.895Z,53.52
2018-03-28T04:47:50.518Z,53.39
2018-03-28T04:48:22.146Z,53.37
2018-03-28T04:48:53.774Z,53.35
2018-03-28T04:49:25.402Z,53.38
2018-03-28T04:49:57.070Z,53.36
2018-03-28T04:50:28.731Z,53.36
2018-03-28T04:51:00.402Z,53.36
2018-03-28T04:51:32.074Z,53.43
2018-03-28T04:52:03.706Z,53.45
2018-03-28T04:52:35.329Z,53.52
2018-03-28T04:53:06.958Z,53.62
2018-03-28T04:53:38.587Z,53.61
2018-03-28T04:54:10.210Z,53.62
2018-03-28T04:54:41.839Z,53.63
2018-03-28T04:55:13.470Z,53.67
2018-03-28T04:55:45.103Z,53.72
2018-03-28T04:56:16.729Z,53.63
2018-03-28T04:56:48.394Z,53.64
2018-03-28T04:57:20.018Z,53.62
2018-03-28T04:57:51.646Z,53.69
2018-03-28T04:58:23.274Z,53.80
2018-03-28T04:58:54.898Z,53.89
2018-03-28T04:59:26.526Z,53.99
2018-03-28T04:59:58.155Z,54.12
2018-03-28T05:00:29.787Z,54.19
2018-03-28T05:01:01.463Z,54.22
2018-03-28T05:01:33.086Z,54.24
2018-03-28T05:02:04.716Z,54.26
2018-03-28T05:02:36.408Z,54.33
2018-03-28T05:03:08.054Z,54.43
2018-03-28T05:03:39.687Z,54.44
2018-03-28T05:04:11.343Z,54.44
2018-03-28T05:04:42.969Z,54.49
2018-03-28T05:05:14.599Z,54.47
2018-03-28T05:05:46.222Z,54.48
2018-03-28T05:06:17.842Z,54.58
2018-03-28T05:06:49.465Z,54.59
2018-03-28T05:07:21.094Z,54.63
2018-03-28T05:07:52.758Z,54.70
2018-03-28T05:08:24.377Z,54.75
2018-03-28T05:08:56.008Z,54.74
2018-03-28T05:09:27.641Z,54.81
2018-03-28T05:09:59.270Z,54.82
2018-03-28T05:10:30.898Z,54.92
2018-03-28T05:11:02.526Z,54.89
2018-03-28T05:11:34.197Z,54.92
2018-03-28T05:12:05.821Z,54.93
2018-03-28T05:12:37.447Z,54.96
2018-03-28T05:13:09.070Z,55.02
2018-03-28T05:13:40.694Z,54.99
2018-03-28T05:14:12.314Z,55.05
2018-03-28T05:14:43.946Z,55.04
2018-03-28T05:15:15.576Z,55.03
2018-03-28T05:15:47.262Z,55.01
2018-03-28T05:16:18.857Z,55.04
2018-03-28T05:16:50.477Z,55.09
2018-03-28T05:17:22.101Z,55.19
2018-03-28T05:17:53.776Z,55.15
2018-03-28T05:18:25.408Z,55.19
2018-03-28T05:18:57.039Z,55.23
2018-03-28T05:19:28.707Z,55.21
2018-03-28T05:20:00.338Z,55.27
2018-03-28T05:20:31.962Z,55.24
2018-03-28T05:21:03.597Z,55.31
2018-03-28T05:21:35.224Z,55.34
2018-03-28T05:22:06.855Z,55.36
2018-03-28T05:22:38.479Z,55.41
2018-03-28T05:23:10.150Z,55.47
2018-03-28T05:23:41.778Z,55.45
2018-03-28T05:24:13.402Z,55.36
2018-03-28T05:24:45.034Z,55.37
2018-03-28T05:25:16.663Z,55.46
2018-03-28T05:25:48.285Z,55.43
2018-03-28T05:26:19.915Z,55.44
2018-03-28T05:26:51.537Z,55.40
2018-03-28T05:27:23.159Z,55.40
2018-03-28T05:27:54.826Z,55.38
2018-03-28T05:28:26.451Z,55.37
2018-03-28T05:28:58.078Z,55.42
2018-03-28T05:29:29.759Z,55.41
2018-03-28T05:30:01.419Z,55.42
2018-03-28T05:30:33.058Z,55.47
2018-03-28T05:31:04.685Z,55.43
2018-03-28T05:31:36.305Z,55.51
2018-03-28T05:32:07.925Z,55.50
2018-03-28T05:32:39.550Z,55.50
2018-03-28T05:33:11.237Z,55.54
2018-03-28T05:33:42.874Z,55.53
2018-03-28T05:34:14.522Z,55.52
2018-03-28T05:34:46.151Z,55.54
2018-03-28T05:35:17.782Z,55.53
2018-03-28T05:35:49.406Z,55.46
2018-03-28T05:36:21.039Z,55.51
2018-03-28T05:36:52.667Z,55.45
2018-03-28T05:37:24.294Z,55.44
2018-03-28T05:37:55.913Z,55.52
2018-03-28T05:38:27.554Z,55.50
2018-03-28T05:38:59.185Z,55.50
2018-03-28T05:39:30.812Z,55.54
2018-03-28T05:40:04.319Z,55.56
2018-03-28T05:40:36.035Z,55.53
2018-03-28T05:41:07.726Z,55.59
2018-03-28T05:41:39.349Z,55.56
2018-03-28T05:42:10.978Z,55.52
2018-03-28T05:42:42.661Z,55.46
2018-03-28T05:43:14.287Z,55.39
2018-03-28T05:43:45.911Z,55.34
2018-03-28T05:44:17.539Z,55.31
2018-03-28T05:44:49.166Z,55.27
2018-03-28T05:45:20.801Z,55.25
2018-03-28T05:45:52.426Z,55.28
2018-03-28T05:46:24.058Z,55.25
2018-03-28T05:46:55.690Z,55.25
2018-03-28T05:47:27.314Z,55.21
2018-03-28T05:47:58.986Z,55.14
2018-03-28T05:48:30.615Z,55.08
2018-03-28T05:49:02.299Z,55.01
2018-03-28T05:49:33.930Z,54.99
2018-03-28T05:50:05.554Z,54.88
2018-03-28T05:50:37.184Z,54.82
2018-03-28T05:51:08.814Z,54.83
2018-03-28T05:51:40.450Z,54.80
2018-03-28T05:52:12.074Z,54.82
2018-03-28T05:52:43.700Z,54.73
2018-03-28T05:53:15.325Z,54.74
2018-03-28T05:53:46.945Z,54.75
2018-03-28T05:54:18.687Z,54.71
2018-03-28T05:54:50.309Z,54.63
2018-03-28T05:55:21.978Z,54.57
2018-03-28T05:55:53.619Z,54.62
2018-03-28T05:56:25.266Z,54.55
2018-03-28T05:56:56.894Z,54.52
2018-03-28T05:57:28.518Z,54.43
2018-03-28T05:58:00.147Z,54.38
2018-03-28T05:58:31.774Z,54.40
2018-03-28T05:59:03.401Z,54.34
2018-03-28T05:59:35.026Z,54.33
2018-03-28T06:00:06.650Z,54.32
2018-03-28T06:00:38.278Z,54.22
2018-03-28T06:01:09.902Z,54.22
2018-03-28T06:01:41.526Z,54.19
2018-03-28T06:02:13.165Z,54.13
2018-03-28T06:02:44.790Z,54.14
2018-03-28T06:03:16.418Z,54.09
2018-03-28T06:03:48.086Z,54.07
2018-03-28T06:04:19.718Z,54.07
2018-03-28T06:04:51.342Z,54.07
2018-03-28T06:05:22.970Z,54.06
2018-03-28T06:05:54.597Z,54.07
2018-03-28T06:06:26.238Z,54.02
2018-03-28T06:06:57.862Z,53.98
2018-03-28T06:07:29.516Z,53.98
2018-03-28T06:08:01.146Z,53.95
2018-03-28T06:08:32.789Z,53.94
2018-03-28T06:09:04.462Z,53.86
2018-03-28T06:09:36.135Z,53.82
2018-03-28T06:10:07.763Z,53.73
2018-03-28T06:10:39.390Z,53.80
2018-03-28T06:11:11.014Z,53.83
2018-03-28T06:11:42.642Z,53.76
2018-03-28T06:12:14.270Z,53.79
2018-03-28T06:12:45.903Z,53.76
2018-03-28T06:13:17.532Z,53.81
2018-03-28T06:13:49.164Z,53.78
2018-03-28T06:14:20.798Z,53.71
2018-03-28T06:14:52.471Z,53.62
2018-03-28T06:15:24.147Z,53.65
2018-03-28T06:15:55.770Z,53.67
2018-03-28T06:16:27.398Z,53.65
2018-03-28T06:16:59.021Z,53.63
2018-03-28T06:17:30.652Z,53.50
2018-03-28T06:18:02.275Z,53.61
2018-03-28T06:18:33.906Z,53.49
2018-03-28T06:19:05.534Z,53.48
2018-03-28T06:19:37.158Z,53.45
2018-03-28T06:20:08.790Z,53.51
2018-03-28T06:20:40.418Z,53.47
2018-03-28T06:21:12.050Z,53.48
2018-03-28T06:21:43.674Z,53.37
2018-03-28T06:22:15.298Z,53.40
2018-03-28T06:22:46.922Z,53.38
2018-03-28T06:23:18.547Z,53.33
2018-03-28T06:23:50.178Z,53.30
2018-03-28T06:24:21.798Z,53.26
2018-03-28T06:24:53.426Z,53.26
2018-03-28T06:25:25.115Z,53.29
2018-03-28T06:25:56.745Z,53.35
2018-03-28T06:26:28.372Z,53.41
2018-03-28T06:26:59.994Z,53.38
2018-03-28T06:27:31.623Z,53.39
2018-03-28T06:28:03.246Z,53.44
2018-03-28T06:28:34.875Z,53.45
2018-03-28T06:29:06.503Z,53.44
2018-03-28T06:29:38.130Z,53.52
2018-03-28T06:30:09.753Z,53.54
2018-03-28T06:30:41.463Z,53.62
2018-03-28T06:31:14.790Z,53.56
2018-03-28T06:31:46.458Z,53.64
2018-03-28T06:32:18.135Z,53.63
2018-03-28T06:32:49.767Z,53.60
2018-03-28T06:33:21.390Z,53.62
2018-03-28T06:33:53.018Z,53.67
2018-03-28T06:34:24.645Z,53.69
2018-03-28T06:34:56.271Z,53.69
2018-03-28T06:35:27.902Z,53.67
2018-03-28T06:35:59.525Z,53.74
2018-03-28T06:36:31.146Z,53.75
2018-03-28T06:37:02.821Z,53.79
2018-03-28T06:37:34.447Z,53.75
2018-03-28T06:38:06.080Z,53.79
2018-03-28T06:38:37.719Z,53.76
2018-03-28T06:39:09.350Z,53.85
2018-03-28T06:39:40.974Z,53.89
2018-03-28T06:40:12.602Z,53.93
2018-03-28T06:40:44.226Z,53.97
2018-03-28T06:41:15.856Z,54.02
2018-03-28T06:41:47.478Z,54.04
2018-03-28T06:42:19.107Z,54.08
2018-03-28T06:42:50.734Z,54.07
2018-03-28T06:43:22.357Z,54.13
2018-03-28T06:43:53.982Z,54.10
2018-03-28T06:44:25.621Z,54.08
2018-03-28T06:44:57.241Z,54.10
2018-03-28T06:45:28.915Z,54.09
2018-03-28T06:46:00.538Z,54.16
2018-03-28T06:46:32.162Z,54.21
2018-03-28T06:47:03.788Z,54.15
2018-03-28T06:47:35.415Z,54.18